Impacts TAF Board
For situational awareness. Not to be used for flight planning purposes.
IDs:

KBNA - Nashville Intl, TN, US

Issued at 1739 UTC 07 Dec 2021
Updated at 1820 UTC 07 Dec 2021
Potential Impact None Slight Moderate High
Time<<08/07Z 08/08Z 08/09Z 08/10Z 08/11Z 08/12Z 08/13Z 08/14Z 08/15Z 08/16Z 08/17Z 08/18Z 08/19Z>>
Type PRVL PRVL PRVL PRVL PRVL PRVL PRVL PRVL PRVL PRVL PRVL
VIS >6 >6 >6 >6 >6 >6 >6 >6 >6 >6 >6
CIG 120 120 120 120 120 120 120 120 120 120 120
Cover OVC OVC OVC OVC OVC OVC OVC OVC OVC OVC OVC
FltCat VFR VFR VFR VFR VFR VFR VFR VFR VFR VFR VFR
WX -- -- -- -- -- -- -- -- -- -- --
WDir 70 70 70 70 70 70 70 70 70 70 70
WSpd 4 4 4 4 4 4 4 4 4 4 4
WGst -- -- -- -- -- -- -- -- -- -- --
WSHgt -- -- -- -- -- -- -- -- -- -- --
WSDir -- -- -- -- -- -- -- -- -- -- --
WSSpd -- -- -- -- -- -- -- -- -- -- --
R02/20
XWnd -3 -3 -3 -3 -3 -3 -3 -3 -3 -3 -3 0 0
HWnd 2 2 2 2 2 2 2 2 2 2 2 0 0
R13/31
XWnd 4 4 4 4 4 4 4 4 4 4 4 0 0
HWnd 2 2 2 2 2 2 2 2 2 2 2 0 0
Raw TAF
KBNA 071739Z 0718/0818 05008KT P6SM BKN250
  FM080300 07004KT P6SM OVC120


METAR Board
Radar Display
Forecast Discussion
For situational awareness. Not to be used for flight planning purposes.